sensor_id;sensor_type;location;lat;lon;timestamp;P1;durP1;ratioP1;P2;durP2;ratioP2
3343;SDS011;1685;53.104;8.228;2023-03-23T00:00:57;20.13;;;17.80;;
3343;SDS011;1685;53.104;8.228;2023-03-23T00:03:24;19.83;;;16.03;;
3343;SDS011;1685;53.104;8.228;2023-03-23T00:05:53;25.10;;;16.97;;
3343;SDS011;1685;53.104;8.228;2023-03-23T00:08:24;24.70;;;18.33;;
3343;SDS011;1685;53.104;8.228;2023-03-23T00:10:51;23.73;;;18.87;;
3343;SDS011;1685;53.104;8.228;2023-03-23T00:13:23;26.37;;;17.73;;
3343;SDS011;1685;53.104;8.228;2023-03-23T00:15:50;24.60;;;19.20;;
3343;SDS011;1685;53.104;8.228;2023-03-23T00:18:17;22.17;;;17.77;;
3343;SDS011;1685;53.104;8.228;2023-03-23T00:20:47;22.40;;;18.00;;
3343;SDS011;1685;53.104;8.228;2023-03-23T00:23:15;20.17;;;17.40;;
3343;SDS011;1685;53.104;8.228;2023-03-23T00:25:45;20.47;;;17.67;;
3343;SDS011;1685;53.104;8.228;2023-03-23T00:28:12;23.30;;;18.63;;
3343;SDS011;1685;53.104;8.228;2023-03-23T00:30:41;25.83;;;17.57;;
3343;SDS011;1685;53.104;8.228;2023-03-23T00:33:09;26.63;;;19.80;;
3343;SDS011;1685;53.104;8.228;2023-03-23T00:35:37;26.97;;;20.63;;
3343;SDS011;1685;53.104;8.228;2023-03-23T00:38:05;22.77;;;17.50;;
3343;SDS011;1685;53.104;8.228;2023-03-23T00:40:33;22.17;;;18.80;;
3343;SDS011;1685;53.104;8.228;2023-03-23T00:43:00;24.33;;;18.53;;
3343;SDS011;1685;53.104;8.228;2023-03-23T00:45:28;21.10;;;18.10;;
3343;SDS011;1685;53.104;8.228;2023-03-23T00:47:57;21.97;;;17.60;;
3343;SDS011;1685;53.104;8.228;2023-03-23T00:50:26;21.83;;;16.97;;
3343;SDS011;1685;53.104;8.228;2023-03-23T00:52:53;20.27;;;17.60;;
3343;SDS011;1685;53.104;8.228;2023-03-23T00:55:21;25.47;;;18.97;;
3343;SDS011;1685;53.104;8.228;2023-03-23T00:57:48;22.63;;;18.20;;
3343;SDS011;1685;53.104;8.228;2023-03-23T01:00:16;21.50;;;16.97;;
3343;SDS011;1685;53.104;8.228;2023-03-23T01:02:43;22.20;;;16.57;;
3343;SDS011;1685;53.104;8.228;2023-03-23T01:05:12;26.77;;;16.93;;
3343;SDS011;1685;53.104;8.228;2023-03-23T01:07:39;25.37;;;17.20;;
3343;SDS011;1685;53.104;8.228;2023-03-23T01:10:09;30.00;;;15.43;;
3343;SDS011;1685;53.104;8.228;2023-03-23T01:12:37;21.63;;;17.10;;
3343;SDS011;1685;53.104;8.228;2023-03-23T01:15:05;20.00;;;16.23;;
3343;SDS011;1685;53.104;8.228;2023-03-23T01:17:32;20.27;;;15.13;;
3343;SDS011;1685;53.104;8.228;2023-03-23T01:20:00;24.17;;;16.37;;
3343;SDS011;1685;53.104;8.228;2023-03-23T01:22:31;20.50;;;15.10;;
3343;SDS011;1685;53.104;8.228;2023-03-23T01:24:58;17.93;;;15.40;;
3343;SDS011;1685;53.104;8.228;2023-03-23T01:27:25;20.60;;;15.77;;
3343;SDS011;1685;53.104;8.228;2023-03-23T01:29:52;18.43;;;14.73;;
3343;SDS011;1685;53.104;8.228;2023-03-23T01:32:19;18.20;;;15.70;;
3343;SDS011;1685;53.104;8.228;2023-03-23T01:34:46;18.63;;;14.60;;
3343;SDS011;1685;53.104;8.228;2023-03-23T01:37:13;24.07;;;14.40;;
3343;SDS011;1685;53.104;8.228;2023-03-23T01:39:42;20.80;;;13.33;;
3343;SDS011;1685;53.104;8.228;2023-03-23T01:42:10;18.53;;;13.50;;
3343;SDS011;1685;53.104;8.228;2023-03-23T01:47:50;16.47;;;13.37;;
3343;SDS011;1685;53.104;8.228;2023-03-23T01:50:20;17.13;;;13.57;;
3343;SDS011;1685;53.104;8.228;2023-03-23T01:52:50;17.53;;;12.33;;
3343;SDS011;1685;53.104;8.228;2023-03-23T01:55:20;15.97;;;12.27;;
3343;SDS011;1685;53.104;8.228;2023-03-23T01:57:48;12.33;;;11.03;;
3343;SDS011;1685;53.104;8.228;2023-03-23T02:00:15;17.67;;;11.43;;
3343;SDS011;1685;53.104;8.228;2023-03-23T02:02:43;12.90;;;10.93;;
3343;SDS011;1685;53.104;8.228;2023-03-23T02:05:14;23.37;;;10.90;;
3343;SDS011;1685;53.104;8.228;2023-03-23T02:07:46;19.93;;;11.63;;
3343;SDS011;1685;53.104;8.228;2023-03-23T02:10:14;16.83;;;11.13;;
3343;SDS011;1685;53.104;8.228;2023-03-23T02:12:43;15.53;;;10.40;;
3343;SDS011;1685;53.104;8.228;2023-03-23T02:15:10;11.90;;;10.50;;
3343;SDS011;1685;53.104;8.228;2023-03-23T02:17:38;13.13;;;10.43;;
3343;SDS011;1685;53.104;8.228;2023-03-23T02:23:12;13.70;;;10.57;;
3343;SDS011;1685;53.104;8.228;2023-03-23T02:26:03;12.87;;;9.50;;
3343;SDS011;1685;53.104;8.228;2023-03-23T02:28:48;17.00;;;8.93;;
3343;SDS011;1685;53.104;8.228;2023-03-23T02:31:35;15.23;;;9.50;;
3343;SDS011;1685;53.104;8.228;2023-03-23T02:34:13;12.17;;;8.77;;
3343;SDS011;1685;53.104;8.228;2023-03-23T02:36:44;13.97;;;7.97;;
3343;SDS011;1685;53.104;8.228;2023-03-23T02:39:17;12.70;;;8.87;;
3343;SDS011;1685;53.104;8.228;2023-03-23T02:41:47;15.53;;;8.50;;
3343;SDS011;1685;53.104;8.228;2023-03-23T02:44:18;9.87;;;7.93;;
3343;SDS011;1685;53.104;8.228;2023-03-23T02:46:45;12.93;;;9.90;;
3343;SDS011;1685;53.104;8.228;2023-03-23T02:49:15;14.27;;;7.80;;
3343;SDS011;1685;53.104;8.228;2023-03-23T02:51:44;13.83;;;8.70;;
3343;SDS011;1685;53.104;8.228;2023-03-23T02:54:12;12.87;;;8.30;;
3343;SDS011;1685;53.104;8.228;2023-03-23T02:56:41;12.40;;;7.93;;
3343;SDS011;1685;53.104;8.228;2023-03-23T02:59:08;12.50;;;8.53;;
3343;SDS011;1685;53.104;8.228;2023-03-23T03:01:46;12.10;;;8.80;;
3343;SDS011;1685;53.104;8.228;2023-03-23T03:04:25;10.40;;;7.90;;
3343;SDS011;1685;53.104;8.228;2023-03-23T03:10:02;17.83;;;7.53;;
3343;SDS011;1685;53.104;8.228;2023-03-23T03:12:36;9.53;;;8.00;;
3343;SDS011;1685;53.104;8.228;2023-03-23T03:15:13;8.80;;;7.80;;
3343;SDS011;1685;53.104;8.228;2023-03-23T03:17:49;20.20;;;8.80;;
3343;SDS011;1685;53.104;8.228;2023-03-23T03:20:22;7.63;;;6.83;;
3343;SDS011;1685;53.104;8.228;2023-03-23T03:22:51;11.73;;;6.87;;
3343;SDS011;1685;53.104;8.228;2023-03-23T03:25:19;12.80;;;7.37;;
3343;SDS011;1685;53.104;8.228;2023-03-23T03:27:47;10.23;;;7.20;;
3343;SDS011;1685;53.104;8.228;2023-03-23T03:30:17;10.33;;;7.40;;
3343;SDS011;1685;53.104;8.228;2023-03-23T03:32:49;14.10;;;7.00;;
3343;SDS011;1685;53.104;8.228;2023-03-23T03:35:19;8.53;;;7.13;;
3343;SDS011;1685;53.104;8.228;2023-03-23T03:37:49;8.27;;;7.50;;
3343;SDS011;1685;53.104;8.228;2023-03-23T03:40:17;9.87;;;6.73;;
3343;SDS011;1685;53.104;8.228;2023-03-23T03:42:46;12.30;;;7.63;;
3343;SDS011;1685;53.104;8.228;2023-03-23T03:45:13;8.60;;;7.17;;
3343;SDS011;1685;53.104;8.228;2023-03-23T03:47:41;11.60;;;6.77;;
3343;SDS011;1685;53.104;8.228;2023-03-23T03:50:09;8.20;;;7.27;;
3343;SDS011;1685;53.104;8.228;2023-03-23T03:52:37;12.53;;;8.17;;
3343;SDS011;1685;53.104;8.228;2023-03-23T03:55:05;12.47;;;7.80;;
3343;SDS011;1685;53.104;8.228;2023-03-23T03:57:33;8.53;;;7.37;;
3343;SDS011;1685;53.104;8.228;2023-03-23T04:00:00;9.70;;;7.10;;
3343;SDS011;1685;53.104;8.228;2023-03-23T04:02:37;9.53;;;8.53;;
3343;SDS011;1685;53.104;8.228;2023-03-23T04:05:05;16.50;;;8.23;;
3343;SDS011;1685;53.104;8.228;2023-03-23T04:07:33;11.63;;;8.60;;
3343;SDS011;1685;53.104;8.228;2023-03-23T04:10:05;11.70;;;8.80;;
3343;SDS011;1685;53.104;8.228;2023-03-23T04:12:33;15.23;;;8.10;;
3343;SDS011;1685;53.104;8.228;2023-03-23T04:15:00;13.70;;;9.30;;
3343;SDS011;1685;53.104;8.228;2023-03-23T04:17:27;11.80;;;7.43;;
3343;SDS011;1685;53.104;8.228;2023-03-23T04:19:55;9.43;;;7.43;;
3343;SDS011;1685;53.104;8.228;2023-03-23T04:22:24;12.67;;;7.80;;
3343;SDS011;1685;53.104;8.228;2023-03-23T04:24:55;9.10;;;7.53;;
3343;SDS011;1685;53.104;8.228;2023-03-23T04:27:26;9.70;;;7.60;;
3343;SDS011;1685;53.104;8.228;2023-03-23T04:29:54;8.60;;;7.70;;
3343;SDS011;1685;53.104;8.228;2023-03-23T04:32:23;10.40;;;9.10;;
3343;SDS011;1685;53.104;8.228;2023-03-23T04:34:54;10.77;;;7.60;;
3343;SDS011;1685;53.104;8.228;2023-03-23T04:37:21;10.80;;;8.53;;
3343;SDS011;1685;53.104;8.228;2023-03-23T04:39:50;11.97;;;7.80;;
3343;SDS011;1685;53.104;8.228;2023-03-23T04:42:27;10.17;;;7.83;;
3343;SDS011;1685;53.104;8.228;2023-03-23T04:44:54;12.87;;;7.37;;
3343;SDS011;1685;53.104;8.228;2023-03-23T04:47:21;8.17;;;7.07;;
3343;SDS011;1685;53.104;8.228;2023-03-23T04:49:48;10.67;;;8.57;;
3343;SDS011;1685;53.104;8.228;2023-03-23T04:52:16;9.60;;;7.43;;
3343;SDS011;1685;53.104;8.228;2023-03-23T04:54:45;10.93;;;7.60;;
3343;SDS011;1685;53.104;8.228;2023-03-23T04:57:13;9.87;;;8.00;;
3343;SDS011;1685;53.104;8.228;2023-03-23T04:59:42;10.07;;;7.50;;
3343;SDS011;1685;53.104;8.228;2023-03-23T05:02:09;13.73;;;8.37;;
3343;SDS011;1685;53.104;8.228;2023-03-23T05:04:38;10.13;;;8.17;;
3343;SDS011;1685;53.104;8.228;2023-03-23T05:07:05;13.20;;;7.90;;
3343;SDS011;1685;53.104;8.228;2023-03-23T05:09:33;10.17;;;7.60;;
3343;SDS011;1685;53.104;8.228;2023-03-23T05:12:03;9.23;;;7.83;;
3343;SDS011;1685;53.104;8.228;2023-03-23T05:14:30;15.03;;;9.30;;
3343;SDS011;1685;53.104;8.228;2023-03-23T05:16:59;12.57;;;8.03;;
3343;SDS011;1685;53.104;8.228;2023-03-23T05:19:26;9.20;;;7.90;;
3343;SDS011;1685;53.104;8.228;2023-03-23T05:21:54;9.90;;;7.50;;
3343;SDS011;1685;53.104;8.228;2023-03-23T05:24:27;11.77;;;8.70;;
3343;SDS011;1685;53.104;8.228;2023-03-23T05:26:56;9.93;;;8.07;;
3343;SDS011;1685;53.104;8.228;2023-03-23T05:29:23;8.70;;;7.43;;
3343;SDS011;1685;53.104;8.228;2023-03-23T05:31:50;8.53;;;7.63;;
3343;SDS011;1685;53.104;8.228;2023-03-23T05:34:22;10.60;;;8.03;;
3343;SDS011;1685;53.104;8.228;2023-03-23T05:36:49;10.00;;;7.93;;
3343;SDS011;1685;53.104;8.228;2023-03-23T05:39:18;11.30;;;7.67;;
3343;SDS011;1685;53.104;8.228;2023-03-23T05:41:45;11.47;;;8.00;;
3343;SDS011;1685;53.104;8.228;2023-03-23T05:44:12;14.67;;;7.90;;
3343;SDS011;1685;53.104;8.228;2023-03-23T05:46:39;9.63;;;7.60;;
3343;SDS011;1685;53.104;8.228;2023-03-23T05:49:07;10.67;;;8.60;;
3343;SDS011;1685;53.104;8.228;2023-03-23T05:51:35;9.73;;;7.23;;
3343;SDS011;1685;53.104;8.228;2023-03-23T05:54:02;14.10;;;8.30;;
3343;SDS011;1685;53.104;8.228;2023-03-23T05:56:29;14.87;;;7.57;;
3343;SDS011;1685;53.104;8.228;2023-03-23T05:58:56;13.00;;;8.77;;
3343;SDS011;1685;53.104;8.228;2023-03-23T06:01:24;10.27;;;8.30;;
3343;SDS011;1685;53.104;8.228;2023-03-23T06:03:51;11.33;;;8.50;;
3343;SDS011;1685;53.104;8.228;2023-03-23T06:06:19;10.30;;;8.23;;
3343;SDS011;1685;53.104;8.228;2023-03-23T06:08:47;10.50;;;8.70;;
3343;SDS011;1685;53.104;8.228;2023-03-23T06:11:15;8.67;;;7.87;;
3343;SDS011;1685;53.104;8.228;2023-03-23T06:13:42;8.73;;;7.53;;
3343;SDS011;1685;53.104;8.228;2023-03-23T06:16:09;11.70;;;7.60;;
3343;SDS011;1685;53.104;8.228;2023-03-23T06:18:36;12.63;;;7.60;;
3343;SDS011;1685;53.104;8.228;2023-03-23T06:21:05;10.43;;;7.63;;
3343;SDS011;1685;53.104;8.228;2023-03-23T06:23:32;8.10;;;7.30;;
3343;SDS011;1685;53.104;8.228;2023-03-23T06:26:01;9.60;;;7.07;;
3343;SDS011;1685;53.104;8.228;2023-03-23T06:28:30;10.70;;;7.50;;
3343;SDS011;1685;53.104;8.228;2023-03-23T06:30:58;10.03;;;6.50;;
3343;SDS011;1685;53.104;8.228;2023-03-23T06:33:26;7.43;;;5.33;;
3343;SDS011;1685;53.104;8.228;2023-03-23T06:35:53;7.80;;;5.63;;
3343;SDS011;1685;53.104;8.228;2023-03-23T06:38:21;9.97;;;6.00;;
3343;SDS011;1685;53.104;8.228;2023-03-23T06:40:48;6.23;;;5.00;;
3343;SDS011;1685;53.104;8.228;2023-03-23T06:43:17;7.20;;;5.53;;
3343;SDS011;1685;53.104;8.228;2023-03-23T06:45:44;11.67;;;5.27;;
3343;SDS011;1685;53.104;8.228;2023-03-23T06:48:11;7.37;;;5.53;;
3343;SDS011;1685;53.104;8.228;2023-03-23T06:50:38;5.63;;;5.00;;
3343;SDS011;1685;53.104;8.228;2023-03-23T06:53:05;6.63;;;5.63;;
3343;SDS011;1685;53.104;8.228;2023-03-23T06:55:32;16.10;;;5.53;;
3343;SDS011;1685;53.104;8.228;2023-03-23T06:57:59;8.30;;;4.10;;
3343;SDS011;1685;53.104;8.228;2023-03-23T07:00:28;6.60;;;3.40;;
3343;SDS011;1685;53.104;8.228;2023-03-23T07:02:55;6.60;;;4.20;;
3343;SDS011;1685;53.104;8.228;2023-03-23T07:05:22;6.87;;;3.30;;
3343;SDS011;1685;53.104;8.228;2023-03-23T07:07:49;4.73;;;3.50;;
3343;SDS011;1685;53.104;8.228;2023-03-23T07:10:16;4.83;;;2.23;;
3343;SDS011;1685;53.104;8.228;2023-03-23T07:12:44;12.33;;;2.83;;
3343;SDS011;1685;53.104;8.228;2023-03-23T07:15:11;3.93;;;2.13;;
3343;SDS011;1685;53.104;8.228;2023-03-23T07:17:40;6.70;;;2.13;;
3343;SDS011;1685;53.104;8.228;2023-03-23T07:20:07;4.90;;;2.20;;
3343;SDS011;1685;53.104;8.228;2023-03-23T07:22:34;6.57;;;2.20;;
3343;SDS011;1685;53.104;8.228;2023-03-23T07:25:01;7.10;;;2.10;;
3343;SDS011;1685;53.104;8.228;2023-03-23T07:27:29;5.57;;;2.13;;
3343;SDS011;1685;53.104;8.228;2023-03-23T07:29:56;7.40;;;2.67;;
3343;SDS011;1685;53.104;8.228;2023-03-23T07:32:23;6.40;;;2.20;;
3343;SDS011;1685;53.104;8.228;2023-03-23T07:34:51;7.67;;;2.83;;
3343;SDS011;1685;53.104;8.228;2023-03-23T07:37:18;5.90;;;2.30;;
3343;SDS011;1685;53.104;8.228;2023-03-23T07:39:45;3.63;;;2.10;;
3343;SDS011;1685;53.104;8.228;2023-03-23T07:42:12;12.80;;;2.53;;
3343;SDS011;1685;53.104;8.228;2023-03-23T07:44:39;9.83;;;2.80;;
3343;SDS011;1685;53.104;8.228;2023-03-23T07:47:06;3.30;;;2.53;;
3343;SDS011;1685;53.104;8.228;2023-03-23T07:49:34;3.27;;;2.97;;
3343;SDS011;1685;53.104;8.228;2023-03-23T07:52:03;7.50;;;2.80;;
3343;SDS011;1685;53.104;8.228;2023-03-23T07:54:30;5.00;;;3.40;;
3343;SDS011;1685;53.104;8.228;2023-03-23T07:56:57;7.30;;;3.33;;
3343;SDS011;1685;53.104;8.228;2023-03-23T07:59:24;5.23;;;3.40;;
3343;SDS011;1685;53.104;8.228;2023-03-23T08:01:51;8.80;;;3.63;;
3343;SDS011;1685;53.104;8.228;2023-03-23T08:04:19;7.10;;;3.40;;
3343;SDS011;1685;53.104;8.228;2023-03-23T08:06:46;5.50;;;3.10;;
3343;SDS011;1685;53.104;8.228;2023-03-23T08:09:14;5.77;;;3.30;;
3343;SDS011;1685;53.104;8.228;2023-03-23T08:11:41;4.70;;;3.17;;
3343;SDS011;1685;53.104;8.228;2023-03-23T08:14:08;12.63;;;4.30;;
3343;SDS011;1685;53.104;8.228;2023-03-23T08:16:36;6.80;;;3.90;;
3343;SDS011;1685;53.104;8.228;2023-03-23T08:19:03;6.83;;;4.10;;
3343;SDS011;1685;53.104;8.228;2023-03-23T08:21:30;6.77;;;3.60;;
3343;SDS011;1685;53.104;8.228;2023-03-23T08:23:58;8.17;;;3.40;;
3343;SDS011;1685;53.104;8.228;2023-03-23T08:26:26;12.30;;;4.37;;
3343;SDS011;1685;53.104;8.228;2023-03-23T08:28:53;14.80;;;4.80;;
3343;SDS011;1685;53.104;8.228;2023-03-23T08:31:20;12.43;;;3.40;;
3343;SDS011;1685;53.104;8.228;2023-03-23T08:33:47;15.87;;;3.90;;
3343;SDS011;1685;53.104;8.228;2023-03-23T08:36:14;10.43;;;5.40;;
3343;SDS011;1685;53.104;8.228;2023-03-23T08:38:41;11.47;;;4.27;;
3343;SDS011;1685;53.104;8.228;2023-03-23T08:41:09;9.30;;;4.40;;
3343;SDS011;1685;53.104;8.228;2023-03-23T08:43:37;16.73;;;4.23;;
3343;SDS011;1685;53.104;8.228;2023-03-23T08:46:05;15.87;;;5.07;;
3343;SDS011;1685;53.104;8.228;2023-03-23T08:48:34;18.17;;;4.40;;
3343;SDS011;1685;53.104;8.228;2023-03-23T08:51:02;17.80;;;4.03;;
3343;SDS011;1685;53.104;8.228;2023-03-23T08:53:29;12.47;;;4.30;;
3343;SDS011;1685;53.104;8.228;2023-03-23T08:55:56;16.60;;;3.30;;
3343;SDS011;1685;53.104;8.228;2023-03-23T08:58:23;10.97;;;3.80;;
3343;SDS011;1685;53.104;8.228;2023-03-23T09:00:52;17.90;;;3.93;;
3343;SDS011;1685;53.104;8.228;2023-03-23T09:03:18;10.23;;;3.17;;
3343;SDS011;1685;53.104;8.228;2023-03-23T09:05:46;12.83;;;3.57;;
3343;SDS011;1685;53.104;8.228;2023-03-23T09:08:13;8.70;;;3.50;;
3343;SDS011;1685;53.104;8.228;2023-03-23T09:10:40;13.90;;;3.53;;
3343;SDS011;1685;53.104;8.228;2023-03-23T09:13:07;9.50;;;4.07;;
3343;SDS011;1685;53.104;8.228;2023-03-23T09:15:34;13.20;;;3.80;;
3343;SDS011;1685;53.104;8.228;2023-03-23T09:18:03;10.73;;;4.23;;
3343;SDS011;1685;53.104;8.228;2023-03-23T09:20:29;10.30;;;4.20;;
3343;SDS011;1685;53.104;8.228;2023-03-23T09:22:57;9.70;;;4.37;;
3343;SDS011;1685;53.104;8.228;2023-03-23T09:25:25;8.77;;;4.50;;
3343;SDS011;1685;53.104;8.228;2023-03-23T09:27:53;8.70;;;4.33;;
3343;SDS011;1685;53.104;8.228;2023-03-23T09:30:22;10.27;;;4.27;;
3343;SDS011;1685;53.104;8.228;2023-03-23T09:32:51;10.27;;;3.97;;
3343;SDS011;1685;53.104;8.228;2023-03-23T09:35:19;10.00;;;4.33;;
3343;SDS011;1685;53.104;8.228;2023-03-23T09:37:48;9.80;;;4.10;;
3343;SDS011;1685;53.104;8.228;2023-03-23T09:40:16;9.70;;;4.17;;
3343;SDS011;1685;53.104;8.228;2023-03-23T09:42:48;10.20;;;4.07;;
3343;SDS011;1685;53.104;8.228;2023-03-23T09:45:25;14.30;;;3.63;;
3343;SDS011;1685;53.104;8.228;2023-03-23T09:51:02;14.37;;;3.90;;
3343;SDS011;1685;53.104;8.228;2023-03-23T09:53:36;9.67;;;3.63;;
3343;SDS011;1685;53.104;8.228;2023-03-23T09:56:08;13.50;;;3.80;;
3343;SDS011;1685;53.104;8.228;2023-03-23T09:58:39;9.97;;;3.87;;
3343;SDS011;1685;53.104;8.228;2023-03-23T10:01:14;9.60;;;3.90;;
3343;SDS011;1685;53.104;8.228;2023-03-23T10:03:44;13.30;;;4.00;;
3343;SDS011;1685;53.104;8.228;2023-03-23T10:06:14;15.83;;;3.90;;
3343;SDS011;1685;53.104;8.228;2023-03-23T10:08:43;16.03;;;6.33;;
3343;SDS011;1685;53.104;8.228;2023-03-23T10:11:18;15.53;;;3.33;;
3343;SDS011;1685;53.104;8.228;2023-03-23T10:13:55;17.63;;;4.33;;
3343;SDS011;1685;53.104;8.228;2023-03-23T10:16:37;17.33;;;4.03;;
3343;SDS011;1685;53.104;8.228;2023-03-23T10:19:09;18.10;;;3.67;;
3343;SDS011;1685;53.104;8.228;2023-03-23T10:21:40;12.37;;;3.67;;
3343;SDS011;1685;53.104;8.228;2023-03-23T10:24:10;10.17;;;3.30;;
3343;SDS011;1685;53.104;8.228;2023-03-23T10:26:44;12.17;;;3.77;;
3343;SDS011;1685;53.104;8.228;2023-03-23T10:29:19;17.07;;;5.20;;
3343;SDS011;1685;53.104;8.228;2023-03-23T10:31:49;12.30;;;4.97;;
3343;SDS011;1685;53.104;8.228;2023-03-23T10:34:21;10.87;;;3.57;;
3343;SDS011;1685;53.104;8.228;2023-03-23T10:36:55;14.87;;;3.73;;
3343;SDS011;1685;53.104;8.228;2023-03-23T10:39:27;10.80;;;4.30;;
3343;SDS011;1685;53.104;8.228;2023-03-23T10:41:59;16.50;;;3.87;;
3343;SDS011;1685;53.104;8.228;2023-03-23T10:44:32;13.60;;;4.20;;
3343;SDS011;1685;53.104;8.228;2023-03-23T10:47:00;13.53;;;5.13;;
3343;SDS011;1685;53.104;8.228;2023-03-23T10:49:30;13.13;;;4.07;;
3343;SDS011;1685;53.104;8.228;2023-03-23T10:52:10;14.57;;;4.10;;
3343;SDS011;1685;53.104;8.228;2023-03-23T10:54:52;12.23;;;4.13;;
3343;SDS011;1685;53.104;8.228;2023-03-23T10:57:22;9.63;;;4.40;;
3343;SDS011;1685;53.104;8.228;2023-03-23T10:59:57;9.60;;;4.40;;
3343;SDS011;1685;53.104;8.228;2023-03-23T11:02:26;15.87;;;4.27;;
3343;SDS011;1685;53.104;8.228;2023-03-23T11:04:57;11.13;;;4.57;;
3343;SDS011;1685;53.104;8.228;2023-03-23T11:07:31;16.10;;;4.93;;
3343;SDS011;1685;53.104;8.228;2023-03-23T11:10:05;16.90;;;4.73;;
3343;SDS011;1685;53.104;8.228;2023-03-23T11:12:34;12.73;;;4.67;;
3343;SDS011;1685;53.104;8.228;2023-03-23T11:15:15;7.20;;;3.73;;
3343;SDS011;1685;53.104;8.228;2023-03-23T11:17:55;15.20;;;4.77;;
3343;SDS011;1685;53.104;8.228;2023-03-23T11:20:24;12.43;;;4.37;;
3343;SDS011;1685;53.104;8.228;2023-03-23T11:22:54;6.87;;;4.00;;
3343;SDS011;1685;53.104;8.228;2023-03-23T11:25:22;8.87;;;4.33;;
3343;SDS011;1685;53.104;8.228;2023-03-23T11:27:49;10.23;;;3.57;;
3343;SDS011;1685;53.104;8.228;2023-03-23T11:30:21;14.13;;;4.40;;
3343;SDS011;1685;53.104;8.228;2023-03-23T11:32:52;12.00;;;3.90;;
3343;SDS011;1685;53.104;8.228;2023-03-23T11:35:21;7.63;;;3.50;;
3343;SDS011;1685;53.104;8.228;2023-03-23T11:37:51;10.87;;;3.80;;
3343;SDS011;1685;53.104;8.228;2023-03-23T11:40:22;7.30;;;2.73;;
3343;SDS011;1685;53.104;8.228;2023-03-23T11:42:56;5.60;;;3.03;;
3343;SDS011;1685;53.104;8.228;2023-03-23T11:45:31;17.10;;;3.00;;
3343;SDS011;1685;53.104;8.228;2023-03-23T11:48:06;8.53;;;3.70;;
3343;SDS011;1685;53.104;8.228;2023-03-23T11:50:44;9.83;;;3.40;;
3343;SDS011;1685;53.104;8.228;2023-03-23T11:53:20;6.00;;;3.50;;
3343;SDS011;1685;53.104;8.228;2023-03-23T11:55:55;5.33;;;2.30;;
3343;SDS011;1685;53.104;8.228;2023-03-23T11:58:27;6.63;;;2.63;;
3343;SDS011;1685;53.104;8.228;2023-03-23T12:00:58;6.07;;;2.60;;
3343;SDS011;1685;53.104;8.228;2023-03-23T12:03:34;10.13;;;2.23;;
3343;SDS011;1685;53.104;8.228;2023-03-23T12:06:12;9.00;;;3.33;;
3343;SDS011;1685;53.104;8.228;2023-03-23T12:08:51;6.73;;;2.40;;
3343;SDS011;1685;53.104;8.228;2023-03-23T12:11:27;5.40;;;2.63;;
3343;SDS011;1685;53.104;8.228;2023-03-23T12:14:06;3.33;;;2.57;;
3343;SDS011;1685;53.104;8.228;2023-03-23T12:16:47;4.73;;;2.27;;
3343;SDS011;1685;53.104;8.228;2023-03-23T12:19:37;4.30;;;2.37;;
3343;SDS011;1685;53.104;8.228;2023-03-23T12:22:16;6.33;;;2.80;;
3343;SDS011;1685;53.104;8.228;2023-03-23T12:24:54;3.40;;;2.37;;
3343;SDS011;1685;53.104;8.228;2023-03-23T12:27:31;4.27;;;2.30;;
3343;SDS011;1685;53.104;8.228;2023-03-23T12:30:19;4.27;;;2.67;;
3343;SDS011;1685;53.104;8.228;2023-03-23T12:32:56;4.07;;;2.20;;
3343;SDS011;1685;53.104;8.228;2023-03-23T12:35:33;15.30;;;3.00;;
3343;SDS011;1685;53.104;8.228;2023-03-23T12:38:20;8.50;;;2.70;;
3343;SDS011;1685;53.104;8.228;2023-03-23T12:41:05;7.47;;;2.90;;
3343;SDS011;1685;53.104;8.228;2023-03-23T12:43:41;3.07;;;2.10;;
3343;SDS011;1685;53.104;8.228;2023-03-23T12:49:06;7.30;;;2.60;;
3343;SDS011;1685;53.104;8.228;2023-03-23T12:51:39;5.47;;;2.60;;
3343;SDS011;1685;53.104;8.228;2023-03-23T12:54:10;3.07;;;2.50;;
3343;SDS011;1685;53.104;8.228;2023-03-23T12:56:44;15.40;;;3.00;;
3343;SDS011;1685;53.104;8.228;2023-03-23T12:59:19;7.73;;;2.97;;
3343;SDS011;1685;53.104;8.228;2023-03-23T13:01:52;4.93;;;2.50;;
3343;SDS011;1685;53.104;8.228;2023-03-23T13:04:25;7.50;;;3.10;;
3343;SDS011;1685;53.104;8.228;2023-03-23T13:06:56;8.30;;;2.53;;
3343;SDS011;1685;53.104;8.228;2023-03-23T13:09:26;4.73;;;2.40;;
3343;SDS011;1685;53.104;8.228;2023-03-23T13:11:58;8.90;;;2.60;;
3343;SDS011;1685;53.104;8.228;2023-03-23T13:14:31;5.40;;;2.00;;
3343;SDS011;1685;53.104;8.228;2023-03-23T13:17:10;5.57;;;2.90;;
3343;SDS011;1685;53.104;8.228;2023-03-23T13:19:53;8.97;;;2.37;;
3343;SDS011;1685;53.104;8.228;2023-03-23T13:22:35;4.93;;;2.13;;
3343;SDS011;1685;53.104;8.228;2023-03-23T13:25:06;7.03;;;2.30;;
3343;SDS011;1685;53.104;8.228;2023-03-23T13:27:39;6.00;;;2.17;;
3343;SDS011;1685;53.104;8.228;2023-03-23T13:30:17;6.93;;;2.30;;
3343;SDS011;1685;53.104;8.228;2023-03-23T13:32:49;8.93;;;2.23;;
3343;SDS011;1685;53.104;8.228;2023-03-23T13:35:18;7.00;;;2.67;;
3343;SDS011;1685;53.104;8.228;2023-03-23T13:37:47;3.97;;;2.13;;
3343;SDS011;1685;53.104;8.228;2023-03-23T13:40:20;6.77;;;2.63;;
3343;SDS011;1685;53.104;8.228;2023-03-23T13:42:53;5.30;;;1.80;;
3343;SDS011;1685;53.104;8.228;2023-03-23T13:45:22;2.83;;;1.53;;
3343;SDS011;1685;53.104;8.228;2023-03-23T13:48:03;5.77;;;1.63;;
3343;SDS011;1685;53.104;8.228;2023-03-23T13:50:42;3.13;;;1.90;;
3343;SDS011;1685;53.104;8.228;2023-03-23T13:53:14;4.30;;;1.77;;
3343;SDS011;1685;53.104;8.228;2023-03-23T13:55:48;6.43;;;1.93;;
3343;SDS011;1685;53.104;8.228;2023-03-23T13:58:23;3.43;;;1.37;;
3343;SDS011;1685;53.104;8.228;2023-03-23T14:01:08;5.90;;;2.50;;
3343;SDS011;1685;53.104;8.228;2023-03-23T14:03:38;2.20;;;1.67;;
3343;SDS011;1685;53.104;8.228;2023-03-23T14:06:07;10.50;;;2.20;;
3343;SDS011;1685;53.104;8.228;2023-03-23T14:08:40;3.57;;;1.47;;
3343;SDS011;1685;53.104;8.228;2023-03-23T14:11:16;7.43;;;2.43;;
3343;SDS011;1685;53.104;8.228;2023-03-23T14:13:46;8.73;;;2.00;;
3343;SDS011;1685;53.104;8.228;2023-03-23T14:16:21;9.67;;;2.70;;
3343;SDS011;1685;53.104;8.228;2023-03-23T14:18:51;6.43;;;2.10;;
3343;SDS011;1685;53.104;8.228;2023-03-23T14:21:25;14.03;;;3.00;;
3343;SDS011;1685;53.104;8.228;2023-03-23T14:24:02;10.13;;;2.30;;
3343;SDS011;1685;53.104;8.228;2023-03-23T14:26:32;6.67;;;2.40;;
3343;SDS011;1685;53.104;8.228;2023-03-23T14:29:00;9.90;;;2.23;;
3343;SDS011;1685;53.104;8.228;2023-03-23T14:31:29;6.27;;;2.33;;
3343;SDS011;1685;53.104;8.228;2023-03-23T14:33:56;8.23;;;2.33;;
3343;SDS011;1685;53.104;8.228;2023-03-23T14:36:29;6.10;;;2.07;;
3343;SDS011;1685;53.104;8.228;2023-03-23T14:38:59;8.03;;;2.37;;
3343;SDS011;1685;53.104;8.228;2023-03-23T14:41:28;8.60;;;2.27;;
3343;SDS011;1685;53.104;8.228;2023-03-23T14:43:56;5.97;;;2.30;;
3343;SDS011;1685;53.104;8.228;2023-03-23T14:46:23;9.43;;;2.03;;
3343;SDS011;1685;53.104;8.228;2023-03-23T14:48:52;6.03;;;2.23;;
3343;SDS011;1685;53.104;8.228;2023-03-23T14:51:20;14.53;;;2.63;;
3343;SDS011;1685;53.104;8.228;2023-03-23T14:53:47;2.80;;;1.80;;
3343;SDS011;1685;53.104;8.228;2023-03-23T14:56:16;10.63;;;2.30;;
3343;SDS011;1685;53.104;8.228;2023-03-23T14:58:44;9.40;;;2.60;;
3343;SDS011;1685;53.104;8.228;2023-03-23T15:01:12;5.77;;;2.67;;
3343;SDS011;1685;53.104;8.228;2023-03-23T15:03:44;11.30;;;2.13;;
3343;SDS011;1685;53.104;8.228;2023-03-23T15:06:17;9.30;;;2.10;;
3343;SDS011;1685;53.104;8.228;2023-03-23T15:08:47;4.50;;;1.53;;
3343;SDS011;1685;53.104;8.228;2023-03-23T15:11:21;5.93;;;2.10;;
3343;SDS011;1685;53.104;8.228;2023-03-23T15:13:52;9.63;;;2.00;;
3343;SDS011;1685;53.104;8.228;2023-03-23T15:16:23;7.77;;;2.60;;
3343;SDS011;1685;53.104;8.228;2023-03-23T15:18:53;4.00;;;1.63;;
3343;SDS011;1685;53.104;8.228;2023-03-23T15:21:28;10.83;;;2.20;;
3343;SDS011;1685;53.104;8.228;2023-03-23T15:23:56;4.43;;;1.63;;
3343;SDS011;1685;53.104;8.228;2023-03-23T15:26:25;7.93;;;1.80;;
3343;SDS011;1685;53.104;8.228;2023-03-23T15:29:13;4.60;;;1.93;;
3343;SDS011;1685;53.104;8.228;2023-03-23T15:31:44;5.03;;;2.17;;
3343;SDS011;1685;53.104;8.228;2023-03-23T15:34:14;5.23;;;2.00;;
3343;SDS011;1685;53.104;8.228;2023-03-23T15:36:56;3.50;;;1.67;;
3343;SDS011;1685;53.104;8.228;2023-03-23T15:39:24;4.63;;;1.73;;